sensor_id;sensor_type;location;lat;lon;timestamp;P1;durP1;ratioP1;P2;durP2;ratioP2
44606;SDS011;30315;46.072;14.474;2023-11-21T00:00:32;21.27;;;10.27;;
44606;SDS011;30315;46.072;14.474;2023-11-21T00:03:00;18.00;;;10.30;;
44606;SDS011;30315;46.072;14.474;2023-11-21T00:05:32;10.73;;;9.75;;
44606;SDS011;30315;46.072;14.474;2023-11-21T00:08:00;16.08;;;10.93;;
44606;SDS011;30315;46.072;14.474;2023-11-21T00:10:44;15.20;;;12.25;;
44606;SDS011;30315;46.072;14.474;2023-11-21T00:13:16;22.20;;;11.07;;
44606;SDS011;30315;46.072;14.474;2023-11-21T00:15:54;12.15;;;9.93;;
44606;SDS011;30315;46.072;14.474;2023-11-21T00:18:21;10.07;;;8.90;;
44606;SDS011;30315;46.072;14.474;2023-11-21T00:20:51;13.13;;;11.38;;
44606;SDS011;30315;46.072;14.474;2023-11-21T00:23:23;12.68;;;9.60;;
44606;SDS011;30315;46.072;14.474;2023-11-21T00:25:51;10.98;;;9.73;;
44606;SDS011;30315;46.072;14.474;2023-11-21T00:28:23;14.20;;;10.98;;
44606;SDS011;30315;46.072;14.474;2023-11-21T00:30:52;10.15;;;8.98;;
44606;SDS011;30315;46.072;14.474;2023-11-21T00:33:22;16.45;;;10.07;;
44606;SDS011;30315;46.072;14.474;2023-11-21T00:35:52;12.68;;;10.32;;
44606;SDS011;30315;46.072;14.474;2023-11-21T00:38:21;16.45;;;9.45;;
44606;SDS011;30315;46.072;14.474;2023-11-21T00:40:50;11.30;;;9.95;;
44606;SDS011;30315;46.072;14.474;2023-11-21T00:43:20;20.00;;;9.68;;
44606;SDS011;30315;46.072;14.474;2023-11-21T00:45:48;10.63;;;9.63;;
44606;SDS011;30315;46.072;14.474;2023-11-21T00:48:17;27.65;;;10.75;;
44606;SDS011;30315;46.072;14.474;2023-11-21T00:50:46;16.65;;;10.13;;
44606;SDS011;30315;46.072;14.474;2023-11-21T00:53:15;19.05;;;10.55;;
44606;SDS011;30315;46.072;14.474;2023-11-21T00:55:44;13.63;;;11.03;;
44606;SDS011;30315;46.072;14.474;2023-11-21T00:58:13;14.75;;;10.65;;
44606;SDS011;30315;46.072;14.474;2023-11-21T01:00:47;15.25;;;10.10;;
44606;SDS011;30315;46.072;14.474;2023-11-21T01:03:23;12.35;;;9.63;;
44606;SDS011;30315;46.072;14.474;2023-11-21T01:05:59;11.32;;;9.27;;
44606;SDS011;30315;46.072;14.474;2023-11-21T01:08:29;13.15;;;9.98;;
44606;SDS011;30315;46.072;14.474;2023-11-21T01:10:59;15.15;;;10.57;;
44606;SDS011;30315;46.072;14.474;2023-11-21T01:13:31;20.40;;;11.98;;
44606;SDS011;30315;46.072;14.474;2023-11-21T01:16:04;26.20;;;10.88;;
44606;SDS011;30315;46.072;14.474;2023-11-21T01:18:45;13.55;;;10.90;;
44606;SDS011;30315;46.072;14.474;2023-11-21T01:21:15;30.50;;;11.25;;
44606;SDS011;30315;46.072;14.474;2023-11-21T01:23:55;15.02;;;10.85;;
44606;SDS011;30315;46.072;14.474;2023-11-21T01:26:22;18.73;;;9.90;;
44606;SDS011;30315;46.072;14.474;2023-11-21T01:28:50;15.35;;;11.02;;
44606;SDS011;30315;46.072;14.474;2023-11-21T01:31:21;17.50;;;9.57;;
44606;SDS011;30315;46.072;14.474;2023-11-21T01:33:50;14.85;;;10.07;;
44606;SDS011;30315;46.072;14.474;2023-11-21T01:36:19;12.00;;;10.68;;
44606;SDS011;30315;46.072;14.474;2023-11-21T01:38:52;18.00;;;9.73;;
44606;SDS011;30315;46.072;14.474;2023-11-21T01:41:21;16.25;;;10.23;;
44606;SDS011;30315;46.072;14.474;2023-11-21T01:43:54;12.95;;;9.82;;
44606;SDS011;30315;46.072;14.474;2023-11-21T01:46:26;13.93;;;9.25;;
44606;SDS011;30315;46.072;14.474;2023-11-21T01:48:58;12.38;;;9.52;;
44606;SDS011;30315;46.072;14.474;2023-11-21T01:51:29;14.13;;;10.02;;
44606;SDS011;30315;46.072;14.474;2023-11-21T01:53:59;15.70;;;10.10;;
44606;SDS011;30315;46.072;14.474;2023-11-21T01:56:46;13.02;;;9.98;;
44606;SDS011;30315;46.072;14.474;2023-11-21T01:59:17;16.10;;;10.82;;
44606;SDS011;30315;46.072;14.474;2023-11-21T02:01:52;18.13;;;10.30;;
44606;SDS011;30315;46.072;14.474;2023-11-21T02:04:24;18.27;;;11.27;;
44606;SDS011;30315;46.072;14.474;2023-11-21T02:06:55;13.80;;;10.10;;
44606;SDS011;30315;46.072;14.474;2023-11-21T02:09:25;19.30;;;10.93;;
44606;SDS011;30315;46.072;14.474;2023-11-21T02:11:56;11.60;;;10.40;;
44606;SDS011;30315;46.072;14.474;2023-11-21T02:14:27;15.32;;;10.73;;
44606;SDS011;30315;46.072;14.474;2023-11-21T02:16:56;13.80;;;10.05;;
44606;SDS011;30315;46.072;14.474;2023-11-21T02:19:24;13.90;;;9.48;;
44606;SDS011;30315;46.072;14.474;2023-11-21T02:21:57;14.80;;;8.85;;
44606;SDS011;30315;46.072;14.474;2023-11-21T03:57:21;10.57;;;8.60;;
44606;SDS011;30315;46.072;14.474;2023-11-21T04:29:17;9.80;;;7.95;;
44606;SDS011;30315;46.072;14.474;2023-11-21T04:32:36;13.50;;;9.23;;
44606;SDS011;30315;46.072;14.474;2023-11-21T05:58:19;8.77;;;7.93;;
44606;SDS011;30315;46.072;14.474;2023-11-21T06:27:10;10.00;;;9.00;;
44606;SDS011;30315;46.072;14.474;2023-11-21T06:40:49;10.27;;;8.25;;
44606;SDS011;30315;46.072;14.474;2023-11-21T06:43:17;13.23;;;9.35;;
44606;SDS011;30315;46.072;14.474;2023-11-21T06:46:15;8.55;;;7.85;;
44606;SDS011;30315;46.072;14.474;2023-11-21T06:57:31;14.90;;;9.60;;
44606;SDS011;30315;46.072;14.474;2023-11-21T07:00:20;11.05;;;9.70;;
44606;SDS011;30315;46.072;14.474;2023-11-21T07:06:48;9.13;;;7.80;;
44606;SDS011;30315;46.072;14.474;2023-11-21T07:09:25;11.70;;;8.75;;
44606;SDS011;30315;46.072;14.474;2023-11-21T07:12:06;9.77;;;8.40;;
44606;SDS011;30315;46.072;14.474;2023-11-21T07:15:43;18.95;;;9.77;;
44606;SDS011;30315;46.072;14.474;2023-11-21T07:19:00;10.80;;;8.40;;
44606;SDS011;30315;46.072;14.474;2023-11-21T10:19:04;4.93;;;4.38;;
44606;SDS011;30315;46.072;14.474;2023-11-21T10:50:52;8.32;;;5.30;;
44606;SDS011;30315;46.072;14.474;2023-11-21T14:00:18;2.53;;;2.42;;
44606;SDS011;30315;46.072;14.474;2023-11-21T14:27:10;3.97;;;3.65;;
44606;SDS011;30315;46.072;14.474;2023-11-21T14:29:45;3.25;;;3.03;;
44606;SDS011;30315;46.072;14.474;2023-11-21T14:32:17;3.75;;;3.55;;
44606;SDS011;30315;46.072;14.474;2023-11-21T14:35:14;5.82;;;3.20;;
44606;SDS011;30315;46.072;14.474;2023-11-21T15:21:30;3.97;;;3.67;;
44606;SDS011;30315;46.072;14.474;2023-11-21T15:24:10;6.47;;;3.97;;
44606;SDS011;30315;46.072;14.474;2023-11-21T15:27:07;6.22;;;4.47;;
44606;SDS011;30315;46.072;14.474;2023-11-21T15:29:42;4.10;;;3.80;;
44606;SDS011;30315;46.072;14.474;2023-11-21T15:32:18;4.88;;;4.10;;
44606;SDS011;30315;46.072;14.474;2023-11-21T15:34:47;3.90;;;3.60;;
44606;SDS011;30315;46.072;14.474;2023-11-21T15:37:44;3.70;;;3.40;;
44606;SDS011;30315;46.072;14.474;2023-11-21T15:40:11;4.43;;;3.55;;
44606;SDS011;30315;46.072;14.474;2023-11-21T15:42:41;4.15;;;3.83;;
44606;SDS011;30315;46.072;14.474;2023-11-21T15:45:19;3.55;;;3.10;;
44606;SDS011;30315;46.072;14.474;2023-11-21T15:48:12;5.63;;;3.92;;
44606;SDS011;30315;46.072;14.474;2023-11-21T15:50:41;3.78;;;3.47;;
44606;SDS011;30315;46.072;14.474;2023-11-21T15:53:14;4.15;;;3.85;;
44606;SDS011;30315;46.072;14.474;2023-11-21T15:55:43;4.25;;;4.00;;
44606;SDS011;30315;46.072;14.474;2023-11-21T15:58:14;7.38;;;4.68;;
44606;SDS011;30315;46.072;14.474;2023-11-21T16:00:42;5.88;;;4.40;;
44606;SDS011;30315;46.072;14.474;2023-11-21T16:03:10;13.48;;;5.35;;
44606;SDS011;30315;46.072;14.474;2023-11-21T16:05:39;6.07;;;4.78;;
44606;SDS011;30315;46.072;14.474;2023-11-21T16:08:11;5.57;;;5.13;;
44606;SDS011;30315;46.072;14.474;2023-11-21T16:10:50;5.43;;;5.10;;
44606;SDS011;30315;46.072;14.474;2023-11-21T16:13:18;4.90;;;4.50;;
44606;SDS011;30315;46.072;14.474;2023-11-21T16:15:48;5.75;;;5.32;;
44606;SDS011;30315;46.072;14.474;2023-11-21T16:18:17;5.77;;;5.17;;
44606;SDS011;30315;46.072;14.474;2023-11-21T16:20:46;5.40;;;5.00;;
44606;SDS011;30315;46.072;14.474;2023-11-21T16:23:15;4.65;;;4.35;;
44606;SDS011;30315;46.072;14.474;2023-11-21T16:25:52;5.28;;;4.78;;
44606;SDS011;30315;46.072;14.474;2023-11-21T16:28:26;5.45;;;5.00;;
44606;SDS011;30315;46.072;14.474;2023-11-21T16:30:58;4.63;;;4.28;;
44606;SDS011;30315;46.072;14.474;2023-11-21T16:33:26;7.43;;;5.32;;
44606;SDS011;30315;46.072;14.474;2023-11-21T16:35:54;4.47;;;3.97;;
44606;SDS011;30315;46.072;14.474;2023-11-21T16:38:21;7.53;;;4.97;;
44606;SDS011;30315;46.072;14.474;2023-11-21T16:40:49;5.05;;;4.57;;
44606;SDS011;30315;46.072;14.474;2023-11-21T16:43:21;4.85;;;4.32;;
44606;SDS011;30315;46.072;14.474;2023-11-21T16:45:57;3.75;;;3.50;;
44606;SDS011;30315;46.072;14.474;2023-11-21T16:48:42;5.05;;;4.38;;
44606;SDS011;30315;46.072;14.474;2023-11-21T16:51:22;12.38;;;3.53;;
44606;SDS011;30315;46.072;14.474;2023-11-21T16:54:09;4.57;;;3.63;;
44606;SDS011;30315;46.072;14.474;2023-11-21T16:56:37;3.20;;;3.00;;
44606;SDS011;30315;46.072;14.474;2023-11-21T16:59:08;3.58;;;3.28;;
44606;SDS011;30315;46.072;14.474;2023-11-21T17:01:44;4.10;;;3.80;;
44606;SDS011;30315;46.072;14.474;2023-11-21T17:04:12;3.15;;;2.90;;
44606;SDS011;30315;46.072;14.474;2023-11-21T17:06:46;3.72;;;3.42;;
44606;SDS011;30315;46.072;14.474;2023-11-21T17:09:19;3.42;;;3.13;;
44606;SDS011;30315;46.072;14.474;2023-11-21T17:11:47;4.57;;;3.60;;
44606;SDS011;30315;46.072;14.474;2023-11-21T17:14:16;3.72;;;3.42;;
44606;SDS011;30315;46.072;14.474;2023-11-21T17:16:44;3.08;;;2.88;;
44606;SDS011;30315;46.072;14.474;2023-11-21T17:19:12;6.93;;;3.10;;
44606;SDS011;30315;46.072;14.474;2023-11-21T17:21:39;2.63;;;2.53;;
44606;SDS011;30315;46.072;14.474;2023-11-21T17:24:09;2.53;;;2.42;;
44606;SDS011;30315;46.072;14.474;2023-11-21T17:26:42;2.40;;;2.30;;
44606;SDS011;30315;46.072;14.474;2023-11-21T17:29:19;3.17;;;2.78;;
44606;SDS011;30315;46.072;14.474;2023-11-21T17:31:58;2.65;;;2.55;;
44606;SDS011;30315;46.072;14.474;2023-11-21T17:34:25;2.90;;;2.70;;
44606;SDS011;30315;46.072;14.474;2023-11-21T17:36:53;3.38;;;3.13;;
44606;SDS011;30315;46.072;14.474;2023-11-21T17:39:23;2.58;;;2.47;;
44606;SDS011;30315;46.072;14.474;2023-11-21T17:41:52;2.78;;;2.45;;
44606;SDS011;30315;46.072;14.474;2023-11-21T17:44:27;3.20;;;2.88;;
44606;SDS011;30315;46.072;14.474;2023-11-21T17:46:55;3.80;;;3.00;;
44606;SDS011;30315;46.072;14.474;2023-11-21T17:49:23;2.92;;;2.72;;
44606;SDS011;30315;46.072;14.474;2023-11-21T17:51:50;7.55;;;2.92;;
44606;SDS011;30315;46.072;14.474;2023-11-21T17:54:18;3.00;;;2.80;;
44606;SDS011;30315;46.072;14.474;2023-11-21T17:56:47;2.47;;;2.35;;
44606;SDS011;30315;46.072;14.474;2023-11-21T18:01:43;2.95;;;2.85;;
44606;SDS011;30315;46.072;14.474;2023-11-21T18:04:10;12.98;;;3.72;;
44606;SDS011;30315;46.072;14.474;2023-11-21T18:06:38;5.32;;;3.70;;
44606;SDS011;30315;46.072;14.474;2023-11-21T18:09:06;4.93;;;4.50;;
44606;SDS011;30315;46.072;14.474;2023-11-21T18:11:36;5.13;;;4.63;;
44606;SDS011;30315;46.072;14.474;2023-11-21T18:14:17;3.95;;;3.65;;
44606;SDS011;30315;46.072;14.474;2023-11-21T18:16:49;4.43;;;3.75;;
44606;SDS011;30315;46.072;14.474;2023-11-21T18:19:20;4.60;;;4.20;;
44606;SDS011;30315;46.072;14.474;2023-11-21T18:21:57;4.22;;;3.92;;
44606;SDS011;30315;46.072;14.474;2023-11-21T18:24:28;4.05;;;3.58;;
44606;SDS011;30315;46.072;14.474;2023-11-21T18:27:00;3.70;;;3.50;;
44606;SDS011;30315;46.072;14.474;2023-11-21T18:29:39;5.13;;;4.60;;
44606;SDS011;30315;46.072;14.474;2023-11-21T18:32:18;3.03;;;2.83;;
44606;SDS011;30315;46.072;14.474;2023-11-21T18:34:53;4.53;;;4.20;;
44606;SDS011;30315;46.072;14.474;2023-11-21T18:37:24;5.63;;;5.07;;
44606;SDS011;30315;46.072;14.474;2023-11-21T18:39:51;7.20;;;6.13;;
44606;SDS011;30315;46.072;14.474;2023-11-21T18:42:22;8.38;;;6.57;;
44606;SDS011;30315;46.072;14.474;2023-11-21T18:44:52;14.53;;;7.70;;
44606;SDS011;30315;46.072;14.474;2023-11-21T18:47:42;6.50;;;5.97;;
44606;SDS011;30315;46.072;14.474;2023-11-21T18:50:13;11.80;;;6.07;;
44606;SDS011;30315;46.072;14.474;2023-11-21T18:52:45;7.65;;;6.35;;
44606;SDS011;30315;46.072;14.474;2023-11-21T18:55:12;6.70;;;5.68;;
44606;SDS011;30315;46.072;14.474;2023-11-21T18:57:42;8.77;;;5.57;;
44606;SDS011;30315;46.072;14.474;2023-11-21T19:00:10;6.72;;;6.13;;
44606;SDS011;30315;46.072;14.474;2023-11-21T19:02:41;6.15;;;5.55;;
44606;SDS011;30315;46.072;14.474;2023-11-21T19:05:12;6.32;;;5.75;;
44606;SDS011;30315;46.072;14.474;2023-11-21T19:07:40;5.65;;;5.13;;
44606;SDS011;30315;46.072;14.474;2023-11-21T19:10:08;11.20;;;5.93;;
44606;SDS011;30315;46.072;14.474;2023-11-21T19:12:37;5.97;;;5.47;;
44606;SDS011;30315;46.072;14.474;2023-11-21T19:15:06;5.68;;;5.18;;
44606;SDS011;30315;46.072;14.474;2023-11-21T19:17:40;7.35;;;5.88;;
44606;SDS011;30315;46.072;14.474;2023-11-21T19:20:09;7.05;;;5.72;;
44606;SDS011;30315;46.072;14.474;2023-11-21T19:22:37;7.57;;;6.97;;
44606;SDS011;30315;46.072;14.474;2023-11-21T19:25:05;21.75;;;7.22;;
44606;SDS011;30315;46.072;14.474;2023-11-21T19:27:35;8.25;;;6.90;;
44606;SDS011;30315;46.072;14.474;2023-11-21T19:30:03;7.85;;;6.72;;
44606;SDS011;30315;46.072;14.474;2023-11-21T19:32:39;7.40;;;6.75;;
44606;SDS011;30315;46.072;14.474;2023-11-21T19:35:25;7.28;;;6.57;;
44606;SDS011;30315;46.072;14.474;2023-11-21T19:38:18;6.38;;;5.78;;
44606;SDS011;30315;46.072;14.474;2023-11-21T19:40:50;7.88;;;6.93;;
44606;SDS011;30315;46.072;14.474;2023-11-21T19:43:32;10.98;;;6.63;;
44606;SDS011;30315;46.072;14.474;2023-11-21T19:45:59;6.63;;;6.05;;
44606;SDS011;30315;46.072;14.474;2023-11-21T19:48:26;5.63;;;5.13;;
44606;SDS011;30315;46.072;14.474;2023-11-21T19:51:20;8.13;;;5.30;;
44606;SDS011;30315;46.072;14.474;2023-11-21T19:53:57;7.35;;;5.57;;
44606;SDS011;30315;46.072;14.474;2023-11-21T19:56:27;7.82;;;5.60;;
44606;SDS011;30315;46.072;14.474;2023-11-21T19:59:01;7.63;;;6.75;;
44606;SDS011;30315;46.072;14.474;2023-11-21T20:01:51;14.63;;;6.97;;
44606;SDS011;30315;46.072;14.474;2023-11-21T20:04:19;8.07;;;7.13;;
44606;SDS011;30315;46.072;14.474;2023-11-21T20:06:46;6.80;;;6.18;;
44606;SDS011;30315;46.072;14.474;2023-11-21T20:09:22;10.73;;;6.35;;
44606;SDS011;30315;46.072;14.474;2023-11-21T20:11:51;5.97;;;5.35;;
44606;SDS011;30315;46.072;14.474;2023-11-21T20:14:24;6.40;;;5.80;;
44606;SDS011;30315;46.072;14.474;2023-11-21T20:16:53;6.27;;;5.77;;
44606;SDS011;30315;46.072;14.474;2023-11-21T20:19:25;7.63;;;6.70;;
44606;SDS011;30315;46.072;14.474;2023-11-21T20:21:57;12.40;;;7.35;;
44606;SDS011;30315;46.072;14.474;2023-11-21T20:24:25;7.82;;;7.03;;
44606;SDS011;30315;46.072;14.474;2023-11-21T20:27:04;12.32;;;6.75;;
44606;SDS011;30315;46.072;14.474;2023-11-21T20:29:40;7.82;;;5.63;;
44606;SDS011;30315;46.072;14.474;2023-11-21T20:32:09;5.88;;;5.55;;
44606;SDS011;30315;46.072;14.474;2023-11-21T20:34:38;11.02;;;7.63;;
44606;SDS011;30315;46.072;14.474;2023-11-21T20:37:06;15.45;;;7.13;;
44606;SDS011;30315;46.072;14.474;2023-11-21T20:39:33;9.43;;;6.65;;
44606;SDS011;30315;46.072;14.474;2023-11-21T20:42:03;7.00;;;6.38;;
44606;SDS011;30315;46.072;14.474;2023-11-21T20:44:30;8.90;;;6.35;;
44606;SDS011;30315;46.072;14.474;2023-11-21T20:46:57;6.07;;;5.50;;
44606;SDS011;30315;46.072;14.474;2023-11-21T20:49:36;7.57;;;5.82;;
44606;SDS011;30315;46.072;14.474;2023-11-21T20:52:13;7.03;;;5.85;;
44606;SDS011;30315;46.072;14.474;2023-11-21T20:54:40;7.57;;;6.40;;
44606;SDS011;30315;46.072;14.474;2023-11-21T20:57:10;6.20;;;5.57;;
44606;SDS011;30315;46.072;14.474;2023-11-21T21:00:07;6.93;;;5.07;;
44606;SDS011;30315;46.072;14.474;2023-11-21T21:02:46;5.22;;;4.10;;
44606;SDS011;30315;46.072;14.474;2023-11-21T21:05:29;5.35;;;4.88;;
44606;SDS011;30315;46.072;14.474;2023-11-21T21:08:02;4.78;;;4.47;;
44606;SDS011;30315;46.072;14.474;2023-11-21T21:10:30;6.35;;;5.32;;
44606;SDS011;30315;46.072;14.474;2023-11-21T21:12:58;5.68;;;5.28;;
44606;SDS011;30315;46.072;14.474;2023-11-21T21:15:29;5.72;;;5.20;;
44606;SDS011;30315;46.072;14.474;2023-11-21T21:17:59;5.38;;;5.05;;
44606;SDS011;30315;46.072;14.474;2023-11-21T21:20:28;5.17;;;4.70;;
44606;SDS011;30315;46.072;14.474;2023-11-21T21:34:19;6.85;;;6.30;;
44606;SDS011;30315;46.072;14.474;2023-11-21T21:37:17;9.43;;;6.00;;
44606;SDS011;30315;46.072;14.474;2023-11-21T21:39:45;5.00;;;4.70;;
44606;SDS011;30315;46.072;14.474;2023-11-21T21:42:13;6.18;;;5.57;;
44606;SDS011;30315;46.072;14.474;2023-11-21T21:44:51;8.10;;;6.05;;
44606;SDS011;30315;46.072;14.474;2023-11-21T21:47:53;6.50;;;5.90;;
44606;SDS011;30315;46.072;14.474;2023-11-21T21:50:21;6.72;;;6.03;;
44606;SDS011;30315;46.072;14.474;2023-11-21T21:53:24;6.63;;;6.03;;
44606;SDS011;30315;46.072;14.474;2023-11-21T21:56:01;5.22;;;4.93;;
44606;SDS011;30315;46.072;14.474;2023-11-21T21:58:40;11.05;;;6.55;;
44606;SDS011;30315;46.072;14.474;2023-11-21T22:01:07;8.45;;;6.05;;
44606;SDS011;30315;46.072;14.474;2023-11-21T22:03:35;9.80;;;5.90;;
44606;SDS011;30315;46.072;14.474;2023-11-21T22:06:12;7.43;;;6.78;;
44606;SDS011;30315;46.072;14.474;2023-11-21T22:08:41;7.00;;;6.45;;
44606;SDS011;30315;46.072;14.474;2023-11-21T22:11:10;12.20;;;6.32;;
44606;SDS011;30315;46.072;14.474;2023-11-21T22:13:38;7.18;;;6.57;;
44606;SDS011;30315;46.072;14.474;2023-11-21T22:16:15;7.65;;;6.18;;
44606;SDS011;30315;46.072;14.474;2023-11-21T22:21:15;7.90;;;6.30;;
44606;SDS011;30315;46.072;14.474;2023-11-21T22:26:57;9.60;;;5.30;;
44606;SDS011;30315;46.072;14.474;2023-11-21T22:32:20;8.07;;;5.13;;
44606;SDS011;30315;46.072;14.474;2023-11-21T22:35:12;9.15;;;6.63;;
44606;SDS011;30315;46.072;14.474;2023-11-21T22:37:44;6.68;;;6.07;;
44606;SDS011;30315;46.072;14.474;2023-11-21T22:40:46;7.10;;;6.47;;
44606;SDS011;30315;46.072;14.474;2023-11-21T22:43:46;5.93;;;5.43;;
44606;SDS011;30315;46.072;14.474;2023-11-21T22:46:18;6.32;;;5.82;;
44606;SDS011;30315;46.072;14.474;2023-11-21T22:48:45;7.28;;;5.82;;
44606;SDS011;30315;46.072;14.474;2023-11-21T22:51:49;6.57;;;6.00;;
44606;SDS011;30315;46.072;14.474;2023-11-21T22:54:28;5.85;;;5.45;;
44606;SDS011;30315;46.072;14.474;2023-11-21T22:57:05;6.80;;;6.10;;
44606;SDS011;30315;46.072;14.474;2023-11-21T22:59:33;6.20;;;5.70;;
44606;SDS011;30315;46.072;14.474;2023-11-21T23:02:02;5.53;;;5.00;;
44606;SDS011;30315;46.072;14.474;2023-11-21T23:04:36;6.10;;;4.38;;
44606;SDS011;30315;46.072;14.474;2023-11-21T23:07:07;6.60;;;6.00;;
44606;SDS011;30315;46.072;14.474;2023-11-21T23:09:39;7.38;;;6.68;;
44606;SDS011;30315;46.072;14.474;2023-11-21T23:12:28;7.35;;;6.50;;
44606;SDS011;30315;46.072;14.474;2023-11-21T23:15:21;6.18;;;5.55;;
44606;SDS011;30315;46.072;14.474;2023-11-21T23:17:57;8.55;;;6.13;;
44606;SDS011;30315;46.072;14.474;2023-11-21T23:20:25;5.50;;;5.10;;
44606;SDS011;30315;46.072;14.474;2023-11-21T23:22:52;4.55;;;4.25;;
44606;SDS011;30315;46.072;14.474;2023-11-21T23:25:20;5.35;;;4.85;;
44606;SDS011;30315;46.072;14.474;2023-11-21T23:27:50;5.00;;;4.65;;
44606;SDS011;30315;46.072;14.474;2023-11-21T23:30:17;6.57;;;5.57;;
44606;SDS011;30315;46.072;14.474;2023-11-21T23:32:46;4.93;;;4.55;;
44606;SDS011;30315;46.072;14.474;2023-11-21T23:35:16;5.80;;;5.15;;
44606;SDS011;30315;46.072;14.474;2023-11-21T23:37:48;5.00;;;4.70;;
44606;SDS011;30315;46.072;14.474;2023-11-21T23:40:16;4.78;;;4.38;;
44606;SDS011;30315;46.072;14.474;2023-11-21T23:42:45;4.90;;;4.55;;
44606;SDS011;30315;46.072;14.474;2023-11-21T23:45:13;4.68;;;4.38;;
44606;SDS011;30315;46.072;14.474;2023-11-21T23:48:03;7.38;;;5.47;;
44606;SDS011;30315;46.072;14.474;2023-11-21T23:50:39;5.32;;;4.95;;
44606;SDS011;30315;46.072;14.474;2023-11-21T23:53:06;7.10;;;5.75;;
44606;SDS011;30315;46.072;14.474;2023-11-21T23:55:35;7.35;;;4.32;;
44606;SDS011;30315;46.072;14.474;2023-11-21T23:58:04;6.25;;;5.65;;
